Saluvia, Pennsylvania
Current Conditions -  °F | °C
As of 1:19 PM on Thursday 23 Oct 2014 (Local Time) from KAOO Reporting Station
Scattered Clouds Scattered Clouds  
Wind Chill: 55°   Ceiling: Unl
Heat Index: 55°   Visibility: 10mi
Dew Point: 42°   Wind: 21mph
Humidity: 62%   Direction: 330°NNW
Pressure: 29.97"   Gusts: 25mph
Location:  39.9765°N, 78.0835°W
Report Text: KAOO 231719Z AUTO 33018G22KT 10SM SCT028 SCT040 13/06 A2997 RMK AO2 PRESFR T01280056
Loading
Personal Weather Stations






























Interactive Weather Map
Tropical Storm Tracking
New forecast layout! Learn more

10-Day Weather Forecast

Advertisements
Track Severe Weather on mobile